Gilze en Rijen, Nederland

11:12 PM CET op 28 januari 2015 (GMT +0100)
Gilze-Rijen Air Base | Change Station
CLOSE
Current Station
Luchthaven
Location: Gilze-Rijen,
Geometrische hoogte: 43 ft
Nabije weerstations

Hoogte 43 ft 51.56 °N, 4.94 °E | Updated 7 minutes ago

Mostly Cloudy
Merendeels bewolkt
37 °F
Voelt als 30 °F
N
10
Wind Variabel Wind van WZW

Vandaag
Hoog -- | Laag -- °F
--% Kans op neerslag
Gisteren
Hoog -- | Laag -- °F
Precip. -- inches
8:25 AM 5:21 PM
Wassende maan, 68% visible
Druk 29.47 inches
Zicht 6.2 mijlen
Wolken Gering 3300 ft
Merendeels bewolkt 4900 ft
Gevoelstemperatuur 30 °F
Dauwpunt 30 °F
Vochtigheid 75%
Neerslag 0.00 inches
Dikte sneeuw Niet beschikbaar.
UV 0 van de 12
Pollen Niet beschikbaar.
Luchtkwaliteit Niet beschikbaar.
Flu Activity Niet beschikbaar.
SPECI EHGR 282205Z AUTO 25009KT 9999 FEW033 BKN049 03/M01 Q0998 BLU

More Conditions Fewer Conditions

Druk 29.47 inches
Zicht 6.2 mijlen
Wolken Gering 3300 ft
Merendeels bewolkt 4900 ft
Gevoelstemperatuur 30 °F
Dauwpunt 30 °F
Vochtigheid 75%
Neerslag 0.00 inches
Dikte sneeuw Niet beschikbaar.
UV 0 van de 12
Pollen Niet beschikbaar.
Luchtkwaliteit Niet beschikbaar.
Flu Activity Niet beschikbaar.
SPECI EHGR 282205Z AUTO 25009KT 9999 FEW033 BKN049 03/M01 Q0998 BLU

More Conditions Fewer Conditions

10-Day Weather Forecast

Almanac

Astronomie

Jan. 28, 2015 Opkomst Ondergang
Werkelijke tijd
Burgerlijke schemering
Nautische schemering
Astronomische schemering
Maan
Golflengte van het zichtbare licht
Daglengte
Tomorrow will be .
, % of the Moon is Illuminated

Extremen vandaag

Country Highs Country Lows

Community

WunderPhotos

Upload Photos

1,791,276 foto’s ge-upload!

WunderBlogs® & News

Nearby

Luchtkwaliteit

  Luchtkwaliteit LK-index Verontreinigende stof
Not available.

Dikte sneeuw

Station Depth Geometrische hoogte

Aardbevingen

Stad Distance Mag. Time & Date
Minimum magnitude displayed is 2.5.

Watertemperatuur langs de kust

Plaats Temperatuur

Nabije weerstations